Time;durP1;ratioP1;P1;durP2;ratioP2;P2;SDS_P1;SDS_P2;PMS_P1;PMS_P2;Temp;Humidity;BMP_temperature;BMP_pressure;BME280_temperature;BME280_humidity;BME280_pressure;Samples;Min_cycle;Max_cycle;Signal;HPM_P1;HPM_P2
2023/10/01 00:03:28;;;;;;;;;;;16.40;99.90;;;;;;8378906;28;20276;-71
2023/10/01 00:07:30;;;;;;;;;;;16.40;99.90;;;;;;8379800;28;20279;-71
2023/10/01 00:11:32;;;;;;;;;;;16.40;99.90;;;;;;8379251;28;20291;-71
2023/10/01 00:15:34;;;;;;;;;;;16.40;99.90;;;;;;8375985;28;19924;-71
2023/10/01 00:19:37;;;;;;;;;;;16.40;99.90;;;;;;8374418;28;19925;-71
2023/10/01 00:23:38;;;;;;;;;;;16.40;99.90;;;;;;8374574;28;19972;-71
2023/10/01 00:27:40;;;;;;;;;;;16.40;99.90;;;;;;8378976;28;19940;-71
2023/10/01 00:31:42;;;;;;;;;;;16.30;99.90;;;;;;8382316;28;19951;-71
2023/10/01 00:35:43;;;;;;;;;;;16.30;99.90;;;;;;8386371;28;20383;-71
2023/10/01 00:39:45;;;;;;;;;;;16.30;99.90;;;;;;8384691;28;20330;-71
2023/10/01 00:43:47;;;;;;;;;;;16.30;99.90;;;;;;8382181;28;20338;-71
2023/10/01 00:47:49;;;;;;;;;;;16.30;99.90;;;;;;8374181;28;19986;-71
2023/10/01 00:51:51;;;;;;;;;;;16.20;99.90;;;;;;8384651;28;20424;-71
2023/10/01 00:55:53;;;;;;;;;;;16.20;99.90;;;;;;8383440;28;20404;-71
2023/10/01 00:59:55;;;;;;;;;;;16.20;99.90;;;;;;8406800;28;20390;-71
2023/10/01 01:03:57;;;;;;;;;;;16.10;99.90;;;;;;8384029;28;19924;-71
2023/10/01 01:23:14;;;;;;;;;;;16.00;99.90;;;;;;8390662;28;20421;-71
2023/10/01 01:27:17;;;;;;;;;;;15.90;99.90;;;;;;8380967;28;19983;-71
2023/10/01 01:31:18;;;;;;;;;;;15.90;99.90;;;;;;8375213;28;19931;-71
2023/10/01 01:35:29;;;;;;;;;;;15.90;99.90;;;;;;8389722;28;19924;-71
2023/10/01 01:59:45;;;;;;;;;;;15.80;99.90;;;;;;8372198;28;19969;-71
2023/10/01 02:19:19;;;;;;;;;;;15.80;99.90;;;;;;8369169;28;20382;-70
2023/10/01 02:23:32;;;;;;;;;;;15.80;99.90;;;;;;8375202;28;19936;-70
2023/10/01 02:27:43;;;;;;;;;;;15.80;99.90;;;;;;8384717;28;19925;-71
2023/10/01 02:31:48;;;;;;;;;;;15.80;99.90;;;;;;8382747;28;19924;-71
2023/10/01 02:35:55;;;;;;;;;;;15.80;99.90;;;;;;8372517;28;19931;-70
2023/10/01 02:39:56;;;;;;;;;;;15.90;99.90;;;;;;8382506;28;19947;-70
2023/10/01 02:44:01;;;;;;;;;;;15.80;99.90;;;;;;8369708;28;19924;-70
2023/10/01 02:48:27;;;;;;;;;;;15.80;99.90;;;;;;8379693;28;20535;-70
2023/10/01 02:52:36;;;;;;;;;;;15.80;99.90;;;;;;8381729;28;19924;-70
2023/10/01 02:56:52;;;;;;;;;;;15.80;99.90;;;;;;8382852;28;19924;-71
2023/10/01 03:00:54;;;;;;;;;;;15.80;99.90;;;;;;8388047;28;20287;-71
2023/10/01 03:05:01;;;;;;;;;;;15.80;99.90;;;;;;8410798;28;20299;-71
2023/10/01 03:19:18;;;;;;;;;;;15.70;99.90;;;;;;8418885;28;19944;-70
2023/10/01 03:27:27;;;;;;;;;;;15.70;99.90;;;;;;8414858;28;19924;-70
2023/10/01 03:31:29;;;;;;;;;;;15.60;99.90;;;;;;8400336;28;20029;-70
2023/10/01 03:35:31;;;;;;;;;;;15.60;99.90;;;;;;8391226;28;19928;-70
2023/10/01 03:39:35;;;;;;;;;;;15.60;99.90;;;;;;8414849;28;19924;-70
2023/10/01 03:43:37;;;;;;;;;;;15.60;99.90;;;;;;8404302;28;20411;-70
2023/10/01 03:47:41;;;;;;;;;;;15.60;99.90;;;;;;8403490;28;19928;-70
2023/10/01 03:51:52;;;;;;;;;;;15.50;99.90;;;;;;8394824;28;19928;-70
2023/10/01 03:55:55;;;;;;;;;;;15.50;99.90;;;;;;8408341;28;19982;-70
2023/10/01 04:00:08;;;;;;;;;;;15.60;99.90;;;;;;8404697;28;19975;-70
2023/10/01 04:04:11;;;;;;;;;;;15.60;99.90;;;;;;8404862;28;19931;-70
2023/10/01 04:08:14;;;;;;;;;;;15.60;99.90;;;;;;8390862;28;19924;-70
2023/10/01 04:12:19;;;;;;;;;;;15.60;99.90;;;;;;8391853;28;19932;-70
2023/10/01 04:16:24;;;;;;;;;;;15.60;99.90;;;;;;8396502;28;19928;-70
2023/10/01 04:20:28;;;;;;;;;;;15.50;99.90;;;;;;8412001;28;19925;-70
2023/10/01 04:24:30;;;;;;;;;;;15.50;99.90;;;;;;8412187;28;19928;-70
2023/10/01 04:34:12;;;;;;;;;;;15.50;99.90;;;;;;8405987;28;19919;-70
2023/10/01 04:38:15;;;;;;;;;;;15.50;99.90;;;;;;8414984;28;20023;-70
2023/10/01 04:52:24;;;;;;;;;;;15.60;99.90;;;;;;8408510;28;19998;-70
2023/10/01 04:56:26;;;;;;;;;;;15.60;99.90;;;;;;8415056;28;19924;-69
2023/10/01 05:00:29;;;;;;;;;;;15.60;99.90;;;;;;8403307;28;19939;-70
2023/10/01 05:04:32;;;;;;;;;;;15.60;99.90;;;;;;8406825;28;19932;-70
2023/10/01 05:08:38;;;;;;;;;;;15.60;99.90;;;;;;8409039;28;19936;-70
2023/10/01 05:12:43;;;;;;;;;;;15.60;99.90;;;;;;8408655;28;19925;-70
2023/10/01 05:16:47;;;;;;;;;;;15.60;99.90;;;;;;8404065;28;19924;-71
2023/10/01 05:20:49;;;;;;;;;;;15.60;99.90;;;;;;8415829;28;19963;-71
2023/10/01 05:24:51;;;;;;;;;;;15.60;99.90;;;;;;8405041;28;19935;-71
2023/10/01 05:28:54;;;;;;;;;;;15.60;99.90;;;;;;8409416;28;19990;-70
2023/10/01 05:32:58;;;;;;;;;;;15.60;99.90;;;;;;8406516;28;19989;-70
2023/10/01 05:37:09;;;;;;;;;;;15.60;99.90;;;;;;8402728;28;19932;-71
2023/10/01 05:41:15;;;;;;;;;;;15.60;99.90;;;;;;8420327;28;19985;-70
2023/10/01 05:45:36;;;;;;;;;;;15.60;99.90;;;;;;8420448;28;19993;-70
2023/10/01 05:49:49;;;;;;;;;;;15.60;99.90;;;;;;8397109;28;19928;-70
2023/10/01 05:53:52;;;;;;;;;;;15.60;99.90;;;;;;8395463;28;19976;-70
2023/10/01 05:57:54;;;;;;;;;;;15.60;99.90;;;;;;8407865;28;19932;-71
2023/10/01 06:01:57;;;;;;;;;;;15.60;99.90;;;;;;8420872;28;19930;-70
2023/10/01 06:05:59;;;;;;;;;;;15.60;99.90;;;;;;8423982;28;20279;-71
2023/10/01 06:10:01;;;;;;;;;;;15.60;99.90;;;;;;8399089;28;19924;-71
2023/10/01 06:14:03;;;;;;;;;;;15.60;99.90;;;;;;8406297;28;19993;-70
2023/10/01 06:18:05;;;;;;;;;;;15.60;99.90;;;;;;8405251;28;20280;-71
2023/10/01 06:22:13;;;;;;;;;;;15.60;99.90;;;;;;8415379;28;19928;-70
2023/10/01 06:26:37;;;;;;;;;;;15.60;99.90;;;;;;8423923;28;19924;-70
2023/10/01 06:30:40;;;;;;;;;;;15.60;99.90;;;;;;8404089;28;19924;-70
2023/10/01 06:34:43;;;;;;;;;;;15.60;99.90;;;;;;8418141;28;19924;-71
2023/10/01 06:38:44;;;;;;;;;;;15.50;99.90;;;;;;8424256;28;19924;-70
2023/10/01 06:42:47;;;;;;;;;;;15.60;99.90;;;;;;8417546;28;19953;-71
2023/10/01 06:46:50;;;;;;;;;;;15.60;99.90;;;;;;8397540;28;19925;-70
2023/10/01 06:56:27;;;;;;;;;;;15.60;99.90;;;;;;8410183;28;19966;-70
2023/10/01 07:00:33;;;;;;;;;;;15.70;99.90;;;;;;8413241;28;19932;-70
2023/10/01 07:04:35;;;;;;;;;;;15.70;99.90;;;;;;8396362;28;19924;-70
2023/10/01 07:08:37;;;;;;;;;;;15.80;99.90;;;;;;8395765;28;19931;-71
2023/10/01 07:12:39;;;;;;;;;;;15.70;99.90;;;;;;8397004;28;19955;-70
2023/10/01 07:16:44;;;;;;;;;;;15.80;99.90;;;;;;8421364;28;19924;-70
2023/10/01 07:20:49;;;;;;;;;;;15.80;99.90;;;;;;8413952;28;19924;-70
2023/10/01 07:24:51;;;;;;;;;;;15.80;99.90;;;;;;8410685;28;19924;-70
2023/10/01 07:28:56;;;;;;;;;;;15.80;99.90;;;;;;8418230;28;19928;-70
2023/10/01 07:33:00;;;;;;;;;;;15.90;99.90;;;;;;8401000;28;20387;-70
2023/10/01 07:37:05;;;;;;;;;;;15.90;99.90;;;;;;8408147;28;19931;-70
2023/10/01 07:41:12;;;;;;;;;;;15.90;99.90;;;;;;8419428;28;19931;-70
2023/10/01 07:45:17;;;;;;;;;;;16.00;99.90;;;;;;8397994;28;19971;-71
2023/10/01 07:49:21;;;;;;;;;;;16.10;99.90;;;;;;8403416;28;19930;-70
2023/10/01 07:53:23;;;;;;;;;;;16.20;99.90;;;;;;8429638;28;19973;-70
2023/10/01 07:57:27;;;;;;;;;;;16.30;99.90;;;;;;8426918;28;19935;-70
2023/10/01 08:01:36;;;;;;;;;;;16.40;99.90;;;;;;8401870;28;19932;-70
2023/10/01 08:05:39;;;;;;;;;;;16.50;99.90;;;;;;8431281;28;19967;-70
2023/10/01 08:09:46;;;;;;;;;;;16.50;99.90;;;;;;8399677;28;20484;-70
2023/10/01 08:13:48;;;;;;;;;;;16.60;99.90;;;;;;8410022;28;19931;-70
2023/10/01 08:17:54;;;;;;;;;;;16.70;99.90;;;;;;8405221;28;19924;-70
2023/10/01 08:22:13;;;;;;;;;;;16.90;99.90;;;;;;8418663;28;19971;-70
2023/10/01 08:30:43;;;;;;;;;;;17.20;99.90;;;;;;8419215;28;19924;-71
2023/10/01 08:35:01;;;;;;;;;;;17.30;99.90;;;;;;8410730;28;19935;-70
2023/10/01 08:39:33;;;;;;;;;;;17.40;99.90;;;;;;8423117;28;19931;-70
2023/10/01 08:43:35;;;;;;;;;;;17.40;99.90;;;;;;8422668;28;19924;-70
2023/10/01 08:47:37;;;;;;;;;;;17.50;99.90;;;;;;8402099;28;19928;-70
2023/10/01 08:51:39;;;;;;;;;;;17.60;99.90;;;;;;8409947;28;20282;-70
2023/10/01 08:59:53;;;;;;;;;;;17.70;99.90;;;;;;8412997;28;19931;-70
2023/10/01 09:03:56;;;;;;;;;;;17.80;99.90;;;;;;8412482;28;19928;-70
2023/10/01 09:08:16;;;;;;;;;;;17.90;99.90;;;;;;8418409;28;19970;-70
2023/10/01 09:12:19;;;;;;;;;;;18.00;99.90;;;;;;8395090;28;19924;-70
2023/10/01 09:16:30;;;;;;;;;;;18.20;99.90;;;;;;8401162;28;19939;-70
2023/10/01 09:20:36;;;;;;;;;;;18.30;99.90;;;;;;8413422;28;19924;-71
2023/10/01 09:24:42;;;;;;;;;;;18.60;99.90;;;;;;8421865;28;20368;-70
2023/10/01 09:28:43;;;;;;;;;;;18.80;99.90;;;;;;8426316;28;19977;-71
2023/10/01 09:32:51;;;;;;;;;;;19.00;99.90;;;;;;8420690;28;19935;-71
2023/10/01 09:36:53;;;;;;;;;;;19.10;99.90;;;;;;8424032;28;19924;-70
2023/10/01 09:41:00;;;;;;;;;;;19.20;99.90;;;;;;8424445;28;20375;-70
2023/10/01 09:45:24;;;;;;;;;;;19.20;99.90;;;;;;8406823;28;19931;-70
2023/10/01 09:49:30;;;;;;;;;;;19.20;99.90;;;;;;8409152;28;20383;-70
2023/10/01 09:53:39;;;;;;;;;;;19.10;99.90;;;;;;8423687;28;19971;-71
2023/10/01 09:57:43;;;;;;;;;;;19.10;99.90;;;;;;8426407;28;19935;-71
2023/10/01 10:01:45;;;;;;;;;;;19.10;99.90;;;;;;8408034;28;19947;-70
2023/10/01 10:05:48;;;;;;;;;;;19.20;99.90;;;;;;8423810;28;19950;-70
2023/10/01 10:09:53;;;;;;;;;;;19.30;99.90;;;;;;8407522;28;19944;-70
2023/10/01 10:13:57;;;;;;;;;;;19.40;99.90;;;;;;8399687;28;19928;-70
2023/10/01 10:18:15;;;;;;;;;;;19.40;99.90;;;;;;8403205;28;20387;-70
2023/10/01 10:22:18;;;;;;;;;;;19.50;99.90;;;;;;8410430;28;19924;-70
2023/10/01 10:26:40;;;;;;;;;;;19.70;99.90;;;;;;8395174;28;19925;-70
2023/10/01 10:31:02;;;;;;;;;;;19.90;99.90;;;;;;8418901;28;19924;-70
2023/10/01 10:35:04;;;;;;;;;;;20.10;99.90;;;;;;8415115;28;19925;-72
2023/10/01 10:39:15;;;;;;;;;;;20.40;99.90;;;;;;8397289;28;19981;-70
2023/10/01 10:43:18;;;;;;;;;;;20.60;99.90;;;;;;8396415;28;19924;-71
2023/10/01 10:47:21;;;;;;;;;;;20.80;99.90;;;;;;8383268;28;20345;-71
2023/10/01 10:51:43;;;;;;;;;;;21.00;99.90;;;;;;8418152;28;20384;-71
2023/10/01 10:56:00;;;;;;;;;;;21.20;99.90;;;;;;8404800;28;20367;-72
2023/10/01 11:00:23;;;;;;;;;;;21.30;99.90;;;;;;8423199;27;19924;-72
2023/10/01 11:04:25;;;;;;;;;;;21.40;99.90;;;;;;8403512;28;19924;-73
2023/10/01 11:08:30;;;;;;;;;;;21.60;99.90;;;;;;8405234;28;19925;-73
2023/10/01 11:12:34;;;;;;;;;;;21.70;99.90;;;;;;8404436;28;19925;-73
2023/10/01 11:16:39;;;;;;;;;;;21.80;99.90;;;;;;8419398;28;20417;-72
2023/10/01 11:20:45;;;;;;;;;;;21.80;99.90;;;;;;8414932;28;19928;-72
2023/10/01 11:24:47;;;;;;;;;;;21.80;99.90;;;;;;8397747;28;19977;-73
2023/10/01 11:28:49;;;;;;;;;;;21.80;99.90;;;;;;8402517;28;19924;-72
2023/10/01 11:33:01;;;;;;;;;;;21.80;99.90;;;;;;8401200;28;19928;-71
2023/10/01 11:37:13;;;;;;;;;;;21.80;99.90;;;;;;8386755;28;19971;-72
2023/10/01 11:41:18;;;;;;;;;;;21.90;99.90;;;;;;8386956;28;19968;-74
2023/10/01 11:45:28;;;;;;;;;;;21.90;99.90;;;;;;8381062;28;19924;-73
2023/10/01 11:49:37;;;;;;;;;;;22.10;99.90;;;;;;8398758;28;19935;-72
2023/10/01 11:53:55;;;;;;;;;;;22.10;99.90;;;;;;8397075;28;19928;-72
2023/10/01 11:57:57;;;;;;;;;;;22.10;99.90;;;;;;8383209;28;19929;-72
2023/10/01 12:06:33;;;;;;;;;;;22.10;99.90;;;;;;8390010;28;19932;-72
2023/10/01 12:10:36;;;;;;;;;;;22.20;99.90;;;;;;8393208;28;20113;-72
2023/10/01 12:14:53;;;;;;;;;;;22.10;99.90;;;;;;8392250;28;19932;-74
2023/10/01 12:19:17;;;;;;;;;;;22.10;99.90;;;;;;8389847;28;19933;-71
2023/10/01 12:23:19;;;;;;;;;;;22.10;99.90;;;;;;8389936;28;19998;-72
2023/10/01 12:27:54;;;;;;;;;;;22.20;99.90;;;;;;8386524;28;19969;-71
2023/10/01 12:31:49;;;;;;;;;;;22.20;99.90;;;;;;8388537;28;20338;-72
2023/10/01 12:35:53;;;;;;;;;;;22.20;99.90;;;;;;8396297;28;19938;-72
2023/10/01 12:40:14;;;;;;;;;;;22.30;99.90;;;;;;8391810;28;20398;-71
2023/10/01 12:44:28;;;;;;;;;;;22.40;99.90;;;;;;8395244;28;19932;-72
2023/10/01 12:48:30;;;;;;;;;;;22.50;99.90;;;;;;8397526;28;19978;-71
2023/10/01 12:52:31;;;;;;;;;;;22.60;99.90;;;;;;8396901;28;19932;-72
2023/10/01 12:56:44;;;;;;;;;;;22.60;99.90;;;;;;8389490;28;19924;-72
2023/10/01 13:00:46;;;;;;;;;;;22.60;99.90;;;;;;8410265;28;19930;-71
2023/10/01 13:05:16;;;;;;;;;;;22.70;99.90;;;;;;8395138;28;19967;-72
2023/10/01 13:13:45;;;;;;;;;;;22.70;99.90;;;;;;8366533;28;19931;-74
2023/10/01 13:17:56;;;;;;;;;;;22.80;99.90;;;;;;8391718;28;20379;-71
2023/10/01 13:21:59;;;;;;;;;;;22.80;99.90;;;;;;8393134;28;19928;-74
2023/10/01 13:26:14;;;;;;;;;;;22.80;99.90;;;;;;8390660;28;19924;-74
2023/10/01 13:30:20;;;;;;;;;;;22.90;99.90;;;;;;8400115;28;19971;-74
2023/10/01 13:34:22;;;;;;;;;;;23.00;99.90;;;;;;8385341;28;19928;-72
2023/10/01 13:38:37;;;;;;;;;;;23.00;99.90;;;;;;8395107;28;20906;-73
2023/10/01 14:09:08;;;;;;;;;;;23.70;99.90;;;;;;8390177;28;20047;-73
2023/10/01 14:13:12;;;;;;;;;;;23.80;99.90;;;;;;8387373;28;20381;-73
2023/10/01 14:17:14;;;;;;;;;;;23.80;99.90;;;;;;8401700;28;19928;-74
2023/10/01 14:21:16;;;;;;;;;;;23.90;99.90;;;;;;8405448;28;20410;-73
2023/10/01 14:25:20;;;;;;;;;;;24.00;99.90;;;;;;8393890;28;20285;-73
2023/10/01 14:29:22;;;;;;;;;;;24.20;99.90;;;;;;8395657;28;19929;-73
2023/10/01 14:33:25;;;;;;;;;;;24.20;99.90;;;;;;8391899;28;19977;-74
2023/10/01 14:37:32;;;;;;;;;;;24.00;99.90;;;;;;8394246;28;20036;-73
2023/10/01 14:41:38;;;;;;;;;;;23.80;99.90;;;;;;8414238;28;19924;-73
2023/10/01 14:45:44;;;;;;;;;;;23.60;99.90;;;;;;8408136;28;19928;-73
2023/10/01 14:49:45;;;;;;;;;;;23.50;99.90;;;;;;8399133;28;19932;-73
2023/10/01 14:53:54;;;;;;;;;;;23.40;99.90;;;;;;8399755;28;19931;-74
2023/10/01 14:57:55;;;;;;;;;;;23.40;99.90;;;;;;8403660;28;20731;-74
2023/10/01 15:01:57;;;;;;;;;;;23.40;99.90;;;;;;8392221;28;19928;-74
2023/10/01 15:06:08;;;;;;;;;;;23.40;99.90;;;;;;8394256;28;19984;-74
2023/10/01 15:10:10;;;;;;;;;;;23.40;99.90;;;;;;8385094;28;20403;-73
2023/10/01 15:14:12;;;;;;;;;;;23.40;99.90;;;;;;8393045;28;19924;-73
2023/10/01 15:18:17;;;;;;;;;;;23.40;99.90;;;;;;8393545;28;19986;-73
2023/10/01 15:22:19;;;;;;;;;;;23.40;99.90;;;;;;8380407;28;19940;-73
2023/10/01 15:26:21;;;;;;;;;;;23.40;99.90;;;;;;8392721;28;19979;-73
2023/10/01 15:30:24;;;;;;;;;;;23.40;99.90;;;;;;8393360;28;19928;-73
2023/10/01 15:34:27;;;;;;;;;;;23.40;99.90;;;;;;8409472;28;19975;-74
2023/10/01 15:38:33;;;;;;;;;;;23.50;99.90;;;;;;8394789;28;19994;-73
2023/10/01 15:42:34;;;;;;;;;;;23.50;99.90;;;;;;8398614;28;19933;-74
2023/10/01 15:46:41;;;;;;;;;;;23.50;99.90;;;;;;8397846;28;20414;-73
2023/10/01 15:50:42;;;;;;;;;;;23.40;99.90;;;;;;8396132;28;19928;-74
2023/10/01 15:54:44;;;;;;;;;;;23.30;99.90;;;;;;8417250;28;19928;-73
2023/10/01 15:58:49;;;;;;;;;;;23.30;99.90;;;;;;8394860;28;20404;-73
2023/10/01 16:03:02;;;;;;;;;;;23.20;99.90;;;;;;8417496;28;19928;-73
2023/10/01 16:07:04;;;;;;;;;;;23.10;99.90;;;;;;8397130;28;19933;-73
2023/10/01 16:11:06;;;;;;;;;;;23.00;99.90;;;;;;8398767;28;19958;-72
2023/10/01 16:15:09;;;;;;;;;;;23.00;99.90;;;;;;8385004;28;19938;-72
2023/10/01 16:19:12;;;;;;;;;;;22.90;99.90;;;;;;8394883;28;20378;-72
2023/10/01 16:23:17;;;;;;;;;;;22.80;99.90;;;;;;8397700;28;19943;-71
2023/10/01 16:27:27;;;;;;;;;;;22.80;99.90;;;;;;8381016;28;20073;-71
2023/10/01 16:31:31;;;;;;;;;;;22.70;99.90;;;;;;8391573;28;19924;-72
2023/10/01 16:35:33;;;;;;;;;;;22.70;99.90;;;;;;8393954;28;20375;-71
2023/10/01 16:39:36;;;;;;;;;;;22.60;99.90;;;;;;8416844;28;21684;-71
2023/10/01 16:43:41;;;;;;;;;;;22.60;99.90;;;;;;8397854;28;19982;-72
2023/10/01 16:47:48;;;;;;;;;;;22.50;99.90;;;;;;8399713;28;19975;-72
2023/10/01 16:51:50;;;;;;;;;;;22.50;99.90;;;;;;8386200;28;19974;-71
2023/10/01 16:55:52;;;;;;;;;;;22.40;99.90;;;;;;8379009;28;20291;-71
2023/10/01 16:59:56;;;;;;;;;;;22.30;99.90;;;;;;8388188;28;20385;-71
2023/10/01 17:04:08;;;;;;;;;;;22.20;99.90;;;;;;8387305;28;19929;-71
2023/10/01 17:08:13;;;;;;;;;;;22.10;99.90;;;;;;8394169;28;19936;-71
2023/10/01 17:12:18;;;;;;;;;;;22.00;99.90;;;;;;8404987;28;20111;-72
2023/10/01 17:16:25;;;;;;;;;;;21.90;99.90;;;;;;8396579;28;19959;-71
2023/10/01 17:20:29;;;;;;;;;;;21.80;99.90;;;;;;8393638;28;20016;-72
2023/10/01 17:24:30;;;;;;;;;;;21.70;99.90;;;;;;8399062;28;19932;-72
2023/10/01 17:28:50;;;;;;;;;;;21.60;99.90;;;;;;8396226;28;20364;-72
2023/10/01 17:33:00;;;;;;;;;;;21.50;99.90;;;;;;8388592;28;19928;-72
2023/10/01 17:37:03;;;;;;;;;;;21.40;99.90;;;;;;8391881;28;19940;-72
2023/10/01 17:41:18;;;;;;;;;;;21.30;99.90;;;;;;8378568;28;19928;-72
2023/10/01 17:45:20;;;;;;;;;;;21.20;99.90;;;;;;8391678;28;19933;-71
2023/10/01 17:49:26;;;;;;;;;;;21.00;99.90;;;;;;8393964;28;20586;-72
2023/10/01 17:53:30;;;;;;;;;;;20.90;99.90;;;;;;8378030;28;20011;-72
2023/10/01 17:57:38;;;;;;;;;;;20.80;99.90;;;;;;8393106;28;19924;-72
2023/10/01 18:02:04;;;;;;;;;;;20.80;99.90;;;;;;8391322;28;19978;-72
2023/10/01 18:06:08;;;;;;;;;;;20.60;99.90;;;;;;8397449;28;19978;-72
2023/10/01 18:10:22;;;;;;;;;;;20.60;99.90;;;;;;8392949;28;19928;-71
2023/10/01 18:14:33;;;;;;;;;;;20.50;99.90;;;;;;8389575;28;20012;-72
2023/10/01 18:18:35;;;;;;;;;;;20.40;99.90;;;;;;8397594;28;20011;-72
2023/10/01 18:22:37;;;;;;;;;;;20.40;99.90;;;;;;8401576;28;19979;-71
2023/10/01 18:26:45;;;;;;;;;;;20.40;99.90;;;;;;8379472;28;19994;-72
2023/10/01 18:30:50;;;;;;;;;;;20.30;99.90;;;;;;8374388;28;20387;-71
2023/10/01 18:34:53;;;;;;;;;;;20.30;99.90;;;;;;8394503;28;19928;-71
2023/10/01 18:38:56;;;;;;;;;;;20.20;99.90;;;;;;8388826;28;20391;-71
2023/10/01 18:42:58;;;;;;;;;;;20.20;99.90;;;;;;8376350;28;20379;-71
2023/10/01 18:47:00;;;;;;;;;;;20.10;99.90;;;;;;8391372;28;20771;-71
2023/10/01 18:51:01;;;;;;;;;;;20.10;99.90;;;;;;8393263;28;19985;-72
2023/10/01 18:55:03;;;;;;;;;;;20.00;99.90;;;;;;8392536;28;19929;-72
2023/10/01 18:59:05;;;;;;;;;;;20.00;99.90;;;;;;8393980;28;19929;-72
2023/10/01 19:03:11;;;;;;;;;;;19.90;99.90;;;;;;8394202;28;19932;-72
2023/10/01 19:07:13;;;;;;;;;;;19.90;99.90;;;;;;8402708;28;19932;-72
2023/10/01 19:11:15;;;;;;;;;;;19.90;99.90;;;;;;8393974;28;19958;-72
2023/10/01 19:15:18;;;;;;;;;;;19.80;99.90;;;;;;8392384;28;19978;-72
2023/10/01 19:19:20;;;;;;;;;;;19.70;99.90;;;;;;8404706;28;20315;-72
2023/10/01 19:38:35;;;;;;;;;;;19.40;99.90;;;;;;8402738;28;20287;-71
2023/10/01 19:42:41;;;;;;;;;;;19.40;99.90;;;;;;8392277;28;19924;-71
2023/10/01 19:46:42;;;;;;;;;;;19.30;99.90;;;;;;8393266;28;23795;-71
2023/10/01 20:00:50;;;;;;;;;;;19.30;99.90;;;;;;8388076;28;19938;-72
2023/10/01 20:04:52;;;;;;;;;;;19.20;99.90;;;;;;8394887;28;19940;-72
2023/10/01 20:08:58;;;;;;;;;;;19.10;99.90;;;;;;8373270;28;19932;-71
2023/10/01 20:18:06;;;;;;;;;;;19.00;99.90;;;;;;8389878;28;20680;-71
2023/10/01 20:22:17;;;;;;;;;;;18.90;99.90;;;;;;8394428;28;20061;-72
2023/10/01 20:26:19;;;;;;;;;;;18.90;99.90;;;;;;8399811;28;20303;-71
2023/10/01 20:30:23;;;;;;;;;;;18.90;99.90;;;;;;8386011;28;20342;-71
2023/10/01 20:34:24;;;;;;;;;;;18.90;99.90;;;;;;8403576;28;19982;-71
2023/10/01 20:43:32;;;;;;;;;;;18.80;99.90;;;;;;8386591;28;20238;-71
2023/10/01 20:47:33;;;;;;;;;;;18.70;99.90;;;;;;8391561;28;20314;-71
2023/10/01 20:51:41;;;;;;;;;;;18.70;99.90;;;;;;8382384;28;20006;-71
2023/10/01 20:55:44;;;;;;;;;;;18.60;99.90;;;;;;8389886;28;19943;-71
2023/10/01 20:59:45;;;;;;;;;;;18.60;99.90;;;;;;8395077;28;19955;-71
2023/10/01 21:03:47;;;;;;;;;;;18.60;99.90;;;;;;8406535;28;20626;-71
2023/10/01 21:13:11;;;;;;;;;;;18.50;99.90;;;;;;8419625;28;19962;-71
2023/10/01 21:17:20;;;;;;;;;;;18.50;99.90;;;;;;8419433;28;19977;-71
2023/10/01 21:26:25;;;;;;;;;;;18.50;99.90;;;;;;8403987;28;19939;-71
2023/10/01 21:45:57;;;;;;;;;;;18.20;99.90;;;;;;8405935;28;20089;-71
2023/10/01 21:49:59;;;;;;;;;;;18.20;99.90;;;;;;8411440;28;19974;-71
2023/10/01 21:54:01;;;;;;;;;;;18.10;99.90;;;;;;8400014;28;19930;-71
2023/10/01 21:58:03;;;;;;;;;;;18.10;99.90;;;;;;8420160;28;19928;-71
2023/10/01 22:02:11;;;;;;;;;;;18.10;99.90;;;;;;8417770;28;19924;-71
2023/10/01 22:06:14;;;;;;;;;;;18.10;99.90;;;;;;8398708;28;19974;-71
2023/10/01 22:10:23;;;;;;;;;;;18.10;99.90;;;;;;8402324;28;19990;-71
2023/10/01 22:14:37;;;;;;;;;;;18.00;99.90;;;;;;8403546;28;20862;-71
2023/10/01 22:24:16;;;;;;;;;;;18.00;99.90;;;;;;8407156;28;20325;-71
2023/10/01 22:38:49;;;;;;;;;;;17.80;99.90;;;;;;8405130;28;20286;-71
2023/10/01 22:42:52;;;;;;;;;;;17.80;99.90;;;;;;8407509;28;20287;-71
2023/10/01 22:46:56;;;;;;;;;;;17.70;99.90;;;;;;8408124;28;19930;-71
2023/10/01 22:51:01;;;;;;;;;;;17.70;99.90;;;;;;8409554;28;19931;-71
2023/10/01 22:55:04;;;;;;;;;;;17.60;99.90;;;;;;8410674;28;19947;-71
2023/10/01 22:59:05;;;;;;;;;;;17.60;99.90;;;;;;8407020;28;19924;-71
2023/10/01 23:03:08;;;;;;;;;;;17.60;99.90;;;;;;8415389;28;19924;-71
2023/10/01 23:12:41;;;;;;;;;;;17.60;99.90;;;;;;8394287;28;19943;-71
2023/10/01 23:16:46;;;;;;;;;;;17.50;99.90;;;;;;8393696;28;19973;-71
2023/10/01 23:20:58;;;;;;;;;;;17.50;99.90;;;;;;8411056;28;19951;-71
2023/10/01 23:25:06;;;;;;;;;;;17.50;99.90;;;;;;8386241;28;19963;-71
2023/10/01 23:29:19;;;;;;;;;;;17.50;99.90;;;;;;8388987;28;20312;-71
2023/10/01 23:33:21;;;;;;;;;;;17.40;99.90;;;;;;8398815;28;19932;-71
2023/10/01 23:37:38;;;;;;;;;;;17.40;99.90;;;;;;8419031;28;19931;-71
2023/10/01 23:41:51;;;;;;;;;;;17.40;99.90;;;;;;8400528;28;19928;-71
2023/10/01 23:46:00;;;;;;;;;;;17.30;99.90;;;;;;8413213;28;20341;-70
2023/10/01 23:54:45;;;;;;;;;;;17.20;99.90;;;;;;8281026;28;19971;-70
2023/10/01 23:58:47;;;;;;;;;;;17.10;99.90;;;;;;8346944;28;19947;-70
